Time;durP1;ratioP1;P1;durP2;ratioP2;P2;SDS_P1;SDS_P2;PMS_P1;PMS_P2;Temp;Humidity;BMP_temperature;BMP_pressure;BME280_temperature;BME280_humidity;BME280_pressure;Samples;Min_cycle;Max_cycle;Signal;HPM_P1;HPM_P2
2024/01/21 00:00:55;;;;;;;;;;;;;;;;;;5114561;28;19924;-40
2024/01/21 00:03:21;;;;;;;;;;;;;;;;;;5114919;28;20014;-41
2024/01/21 00:05:48;;;;;;;;;;;;;;;;;;5115345;28;19989;-40
2024/01/21 00:08:14;;;;;;;;;;;;;;;;;;5115114;28;19976;-41
2024/01/21 00:10:40;;;;;;;;;;;;;;;;;;5115197;28;20330;-40
2024/01/21 00:13:06;;;;;;;;;;;;;;;;;;5115154;28;20283;-41
2024/01/21 00:15:32;;;;;;;;;;;;;;;;;;5115203;28;20309;-40
2024/01/21 00:17:58;;;;;;;;;;;;;;;;;;5115178;28;19928;-40
2024/01/21 00:20:25;;;;;;;;;;;;;;;;;;5115339;28;20399;-39
2024/01/21 00:22:51;;;;;;;;;;;;;;;;;;5131584;27;19923;-38
2024/01/21 00:25:17;;;;;;;;;;;;;;;;;;5135194;27;19960;-40
2024/01/21 00:27:43;;;;;;;;;;;;;;;;;;5135364;27;19927;-42
2024/01/21 00:30:09;;;;;;;;;;;;;;;;;;5135178;27;20382;-41
2024/01/21 00:32:35;;;;;;;;;;;;;;;;;;5135195;27;20370;-40
2024/01/21 00:35:03;;;;;;;;;;;;;;;;;;5135164;27;19966;-40
2024/01/21 00:37:29;;;;;;;;;;;;;;;;;;5135098;27;19927;-40
2024/01/21 00:39:55;;;;;;;;;;;;;;;;;;5135104;27;19927;-40
2024/01/21 00:42:21;;;;;;;;;;;;;;;;;;5135163;27;20378;-40
2024/01/21 00:44:47;;;;;;;;;;;;;;;;;;5135050;27;20377;-42
2024/01/21 00:47:14;;;;;;;;;;;;;;;;;;5135094;27;20261;-40
2024/01/21 00:49:40;;;;;;;;;;;;;;;;;;5134683;27;19968;-40
2024/01/21 00:52:06;;;;;;;;;;;;;;;;;;5134988;27;19923;-40
2024/01/21 00:54:33;;;;;;;;;;;;;;;;;;5134421;27;19923;-39
2024/01/21 00:56:59;;;;;;;;;;;;;;;;;;5134717;27;19934;-39
2024/01/21 00:59:25;;;;;;;;;;;;;;;;;;5134754;27;19972;-40
2024/01/21 01:01:51;;;;;;;;;;;;;;;;;;5134665;27;19923;-41
2024/01/21 01:04:17;;;;;;;;;;;;;;;;;;5134619;27;20421;-40
2024/01/21 01:06:44;;;;;;;;;;;;;;;;;;5134464;27;19988;-40
2024/01/21 01:09:10;;;;;;;;;;;;;;;;;;5134652;27;19996;-41
2024/01/21 01:11:37;;;;;;;;;;;;;;;;;;5134652;27;19923;-42
2024/01/21 01:14:03;;;;;;;;;;;;;;;;;;5134536;27;19923;-40
2024/01/21 01:16:29;;;;;;;;;;;;;;;;;;5134630;27;19953;-41
2024/01/21 01:18:56;;;;;;;;;;;;;;;;;;5134589;27;19932;-41
2024/01/21 01:21:22;;;;;;;;;;;;;;;;;;5134634;27;20375;-40
2024/01/21 01:23:48;;;;;;;;;;;;;;;;;;5134197;27;19924;-41
2024/01/21 01:26:14;;;;;;;;;;;;;;;;;;5134269;27;19923;-41
2024/01/21 01:28:40;;;;;;;;;;;;;;;;;;5134313;27;19976;-40
2024/01/21 01:31:08;;;;;;;;;;;;;;;;;;5134424;27;19923;-41
2024/01/21 01:33:34;;;;;;;;;;;;;;;;;;5134272;27;19969;-40
2024/01/21 01:36:00;;;;;;;;;;;;;;;;;;5134206;27;20386;-40
2024/01/21 01:38:26;;;;;;;;;;;;;;;;;;5134008;28;20013;-41
2024/01/21 01:40:53;;;;;;;;;;;;;;;;;;5134371;28;19987;-40
2024/01/21 01:43:19;;;;;;;;;;;;;;;;;;5134146;28;19959;-44
2024/01/21 01:45:45;;;;;;;;;;;;;;;;;;5134240;28;19927;-42
2024/01/21 01:48:11;;;;;;;;;;;;;;;;;;5134380;28;20473;-42
2024/01/21 01:50:38;;;;;;;;;;;;;;;;;;5133546;28;20002;-39
2024/01/21 01:53:04;;;;;;;;;;;;;;;;;;5133975;28;19927;-41
2024/01/21 01:55:30;;;;;;;;;;;;;;;;;;5134020;28;19923;-40
2024/01/21 01:57:56;;;;;;;;;;;;;;;;;;5134145;28;19969;-41
2024/01/21 02:00:22;;;;;;;;;;;;;;;;;;5133981;28;19930;-41
2024/01/21 02:02:48;;;;;;;;;;;;;;;;;;5133722;28;20275;-42
2024/01/21 02:05:15;;;;;;;;;;;;;;;;;;5133838;28;19989;-41
2024/01/21 02:07:41;;;;;;;;;;;;;;;;;;5134043;28;19968;-40
2024/01/21 02:10:07;;;;;;;;;;;;;;;;;;5134078;28;19973;-41
2024/01/21 02:12:33;;;;;;;;;;;;;;;;;;5134006;28;20363;-41
2024/01/21 02:14:59;;;;;;;;;;;;;;;;;;5133471;28;19930;-40
2024/01/21 02:17:25;;;;;;;;;;;;;;;;;;5134107;28;19927;-41
2024/01/21 02:19:52;;;;;;;;;;;;;;;;;;5134035;28;20371;-41
2024/01/21 02:22:18;;;;;;;;;;;;;;;;;;5133877;28;19928;-42
2024/01/21 02:24:44;;;;;;;;;;;;;;;;;;5135115;27;19956;-41
2024/01/21 02:27:10;;;;;;;;;;;;;;;;;;5137551;27;19930;-41
2024/01/21 02:29:36;;;;;;;;;;;;;;;;;;5137587;27;19931;-39
2024/01/21 02:32:03;;;;;;;;;;;;;;;;;;5137724;27;19940;-40
2024/01/21 02:34:31;;;;;;;;;;;;;;;;;;5137587;27;20272;-40
2024/01/21 02:36:57;;;;;;;;;;;;;;;;;;5137479;27;19924;-42
2024/01/21 02:39:24;;;;;;;;;;;;;;;;;;5137590;27;20385;-40
2024/01/21 02:41:50;;;;;;;;;;;;;;;;;;5137537;27;19927;-40
2024/01/21 02:44:16;;;;;;;;;;;;;;;;;;5137462;27;20106;-41
2024/01/21 02:46:43;;;;;;;;;;;;;;;;;;5137504;27;19923;-43
2024/01/21 02:49:09;;;;;;;;;;;;;;;;;;5137507;27;19990;-39
2024/01/21 02:51:35;;;;;;;;;;;;;;;;;;5137068;27;19928;-42
2024/01/21 02:54:01;;;;;;;;;;;;;;;;;;5137158;27;19928;-41
2024/01/21 02:56:27;;;;;;;;;;;;;;;;;;5137434;27;19953;-41
2024/01/21 02:58:53;;;;;;;;;;;;;;;;;;5137142;27;19927;-40
2024/01/21 03:01:19;;;;;;;;;;;;;;;;;;5136987;27;19972;-40
2024/01/21 03:03:46;;;;;;;;;;;;;;;;;;5136983;27;19923;-40
2024/01/21 03:06:12;;;;;;;;;;;;;;;;;;5137054;27;19934;-39
2024/01/21 03:08:38;;;;;;;;;;;;;;;;;;5136938;27;19923;-41
2024/01/21 03:11:04;;;;;;;;;;;;;;;;;;5137034;27;19923;-43
2024/01/21 03:13:31;;;;;;;;;;;;;;;;;;5136963;27;19938;-39
2024/01/21 03:15:57;;;;;;;;;;;;;;;;;;5136396;27;19927;-40
2024/01/21 03:18:25;;;;;;;;;;;;;;;;;;5136972;27;20394;-42
2024/01/21 03:20:51;;;;;;;;;;;;;;;;;;5136675;27;19930;-40
2024/01/21 03:23:18;;;;;;;;;;;;;;;;;;5136594;27;19931;-40
2024/01/21 03:25:45;;;;;;;;;;;;;;;;;;5136610;27;19927;-40
2024/01/21 03:28:11;;;;;;;;;;;;;;;;;;5136498;27;19928;-41
2024/01/21 03:30:39;;;;;;;;;;;;;;;;;;5136453;27;19928;-43
2024/01/21 03:33:05;;;;;;;;;;;;;;;;;;5136485;27;19935;-41
2024/01/21 03:35:31;;;;;;;;;;;;;;;;;;5136383;27;19966;-40
2024/01/21 03:37:57;;;;;;;;;;;;;;;;;;5136478;27;19966;-41
2024/01/21 03:40:23;;;;;;;;;;;;;;;;;;5136019;27;19969;-41
2024/01/21 03:42:49;;;;;;;;;;;;;;;;;;5136328;27;20324;-42
2024/01/21 03:45:16;;;;;;;;;;;;;;;;;;5136278;27;20290;-42
2024/01/21 03:47:42;;;;;;;;;;;;;;;;;;5136357;27;19924;-40
2024/01/21 03:50:08;;;;;;;;;;;;;;;;;;5135984;27;19968;-40
2024/01/21 03:52:34;;;;;;;;;;;;;;;;;;5136004;27;19972;-40
2024/01/21 03:55:01;;;;;;;;;;;;;;;;;;5136093;27;19968;-42
2024/01/21 03:57:27;;;;;;;;;;;;;;;;;;5135875;27;19932;-41
2024/01/21 03:59:54;;;;;;;;;;;;;;;;;;5135967;27;19924;-42
2024/01/21 04:02:21;;;;;;;;;;;;;;;;;;5135856;27;20359;-43
2024/01/21 04:04:47;;;;;;;;;;;;;;;;;;5135933;27;19927;-41
2024/01/21 04:07:13;;;;;;;;;;;;;;;;;;5135831;27;19927;-40
2024/01/21 04:09:39;;;;;;;;;;;;;;;;;;5135890;27;19927;-40
2024/01/21 04:12:05;;;;;;;;;;;;;;;;;;5135771;27;20363;-40
2024/01/21 04:14:32;;;;;;;;;;;;;;;;;;5135877;27;19972;-40
2024/01/21 04:16:58;;;;;;;;;;;;;;;;;;5135722;27;19928;-40
2024/01/21 04:19:24;;;;;;;;;;;;;;;;;;5135414;27;20470;-40
2024/01/21 04:21:50;;;;;;;;;;;;;;;;;;5135418;27;19933;-40
2024/01/21 04:24:16;;;;;;;;;;;;;;;;;;5135374;27;19923;-41
2024/01/21 04:26:42;;;;;;;;;;;;;;;;;;5135317;27;19923;-41
2024/01/21 04:29:09;;;;;;;;;;;;;;;;;;5132808;27;19923;-40
2024/01/21 04:31:35;;;;;;;;;;;;;;;;;;5135473;27;19965;-41
2024/01/21 04:34:01;;;;;;;;;;;;;;;;;;5135395;27;19928;-39
2024/01/21 04:36:27;;;;;;;;;;;;;;;;;;5135233;27;20314;-41
2024/01/21 04:38:53;;;;;;;;;;;;;;;;;;5135151;27;19931;-41
2024/01/21 04:41:20;;;;;;;;;;;;;;;;;;5134783;27;19930;-41
2024/01/21 04:43:46;;;;;;;;;;;;;;;;;;5135294;27;19923;-39
2024/01/21 04:46:12;;;;;;;;;;;;;;;;;;5135102;27;19928;-39
2024/01/21 04:48:38;;;;;;;;;;;;;;;;;;5134467;27;20264;-40
2024/01/21 04:51:04;;;;;;;;;;;;;;;;;;5134756;27;19927;-40
2024/01/21 04:53:30;;;;;;;;;;;;;;;;;;5134972;27;19987;-40
2024/01/21 04:55:57;;;;;;;;;;;;;;;;;;5134785;27;19984;-41
2024/01/21 04:58:23;;;;;;;;;;;;;;;;;;5134786;27;19927;-41
2024/01/21 05:00:49;;;;;;;;;;;;;;;;;;5134873;27;19923;-41
2024/01/21 05:03:15;;;;;;;;;;;;;;;;;;5134767;27;19930;-42
2024/01/21 05:05:41;;;;;;;;;;;;;;;;;;5134438;27;19928;-42
2024/01/21 05:08:08;;;;;;;;;;;;;;;;;;5134573;27;19942;-42
2024/01/21 05:10:35;;;;;;;;;;;;;;;;;;5134783;27;19924;-43
2024/01/21 05:13:01;;;;;;;;;;;;;;;;;;5134727;27;19923;-43
2024/01/21 05:15:27;;;;;;;;;;;;;;;;;;5134546;27;19924;-39
2024/01/21 05:17:56;;;;;;;;;;;;;;;;;;5134433;27;19923;-41
2024/01/21 05:20:22;;;;;;;;;;;;;;;;;;5134162;27;20252;-41
2024/01/21 05:22:50;;;;;;;;;;;;;;;;;;5134373;27;19972;-40
2024/01/21 05:25:16;;;;;;;;;;;;;;;;;;5134283;27;20075;-40
2024/01/21 05:27:42;;;;;;;;;;;;;;;;;;5134286;27;19969;-40
2024/01/21 05:30:08;;;;;;;;;;;;;;;;;;5133987;27;19934;-40
2024/01/21 05:32:34;;;;;;;;;;;;;;;;;;5134418;27;19972;-41
2024/01/21 05:35:01;;;;;;;;;;;;;;;;;;5134244;27;19931;-40
2024/01/21 05:37:27;;;;;;;;;;;;;;;;;;5134419;27;19945;-42
2024/01/21 05:39:53;;;;;;;;;;;;;;;;;;5134405;28;20022;-41
2024/01/21 05:42:19;;;;;;;;;;;;;;;;;;5134283;28;19924;-42
2024/01/21 05:44:45;;;;;;;;;;;;;;;;;;5134176;28;19923;-40
2024/01/21 05:47:11;;;;;;;;;;;;;;;;;;5133788;28;19927;-40
2024/01/21 05:49:39;;;;;;;;;;;;;;;;;;5133437;28;21280;-40
2024/01/21 05:52:05;;;;;;;;;;;;;;;;;;5133823;28;20286;-41
2024/01/21 05:54:32;;;;;;;;;;;;;;;;;;5134125;28;19984;-39
2024/01/21 05:56:58;;;;;;;;;;;;;;;;;;5133816;28;19927;-42
2024/01/21 05:59:24;;;;;;;;;;;;;;;;;;5134812;27;19923;-40
2024/01/21 06:01:50;;;;;;;;;;;;;;;;;;5138444;27;19928;-40
2024/01/21 06:04:17;;;;;;;;;;;;;;;;;;5138325;27;19989;-42
2024/01/21 06:06:43;;;;;;;;;;;;;;;;;;5138213;27;19924;-41
2024/01/21 06:09:10;;;;;;;;;;;;;;;;;;5138243;27;20397;-40
2024/01/21 06:11:36;;;;;;;;;;;;;;;;;;5138210;27;19955;-40
2024/01/21 06:14:02;;;;;;;;;;;;;;;;;;5138054;27;20316;-41
2024/01/21 06:16:28;;;;;;;;;;;;;;;;;;5138010;27;19927;-40
2024/01/21 06:18:55;;;;;;;;;;;;;;;;;;5137920;27;20189;-40
2024/01/21 06:21:21;;;;;;;;;;;;;;;;;;5137814;27;19975;-41
2024/01/21 06:23:47;;;;;;;;;;;;;;;;;;5137850;27;19923;-40
2024/01/21 06:26:13;;;;;;;;;;;;;;;;;;5137774;27;20367;-41
2024/01/21 06:28:39;;;;;;;;;;;;;;;;;;5137819;27;19952;-40
2024/01/21 06:31:05;;;;;;;;;;;;;;;;;;5137681;27;20379;-40
2024/01/21 06:33:32;;;;;;;;;;;;;;;;;;5137789;27;20359;-41
2024/01/21 06:35:58;;;;;;;;;;;;;;;;;;5137609;27;19928;-40
2024/01/21 06:38:24;;;;;;;;;;;;;;;;;;5137739;27;19928;-40
2024/01/21 06:40:51;;;;;;;;;;;;;;;;;;5137775;27;19924;-39
2024/01/21 06:43:18;;;;;;;;;;;;;;;;;;5137543;27;19976;-41
2024/01/21 06:45:44;;;;;;;;;;;;;;;;;;5137279;27;19976;-40
2024/01/21 06:48:10;;;;;;;;;;;;;;;;;;5137388;27;20370;-40
2024/01/21 06:50:36;;;;;;;;;;;;;;;;;;5137194;27;19931;-41
2024/01/21 06:53:03;;;;;;;;;;;;;;;;;;5137331;27;20371;-41
2024/01/21 06:55:29;;;;;;;;;;;;;;;;;;5137226;27;19968;-42
2024/01/21 06:57:56;;;;;;;;;;;;;;;;;;5136869;27;19927;-40
2024/01/21 07:00:22;;;;;;;;;;;;;;;;;;5137215;27;19923;-40
2024/01/21 07:02:48;;;;;;;;;;;;;;;;;;5137074;27;19931;-41
2024/01/21 07:05:14;;;;;;;;;;;;;;;;;;5137080;27;19924;-41
2024/01/21 07:07:40;;;;;;;;;;;;;;;;;;5137124;27;19962;-42
2024/01/21 07:10:07;;;;;;;;;;;;;;;;;;5136759;27;19927;-39
2024/01/21 07:12:33;;;;;;;;;;;;;;;;;;5137004;27;19924;-41
2024/01/21 07:14:59;;;;;;;;;;;;;;;;;;5136729;27;19934;-41
2024/01/21 07:17:25;;;;;;;;;;;;;;;;;;5136809;27;19924;-42
2024/01/21 07:19:53;;;;;;;;;;;;;;;;;;5136727;27;19923;-40
2024/01/21 07:22:20;;;;;;;;;;;;;;;;;;5136747;27;19931;-41
2024/01/21 07:24:46;;;;;;;;;;;;;;;;;;5136621;27;19930;-40
2024/01/21 07:27:12;;;;;;;;;;;;;;;;;;5136646;27;19931;-40
2024/01/21 07:29:38;;;;;;;;;;;;;;;;;;5136675;27;20815;-41
2024/01/21 07:32:04;;;;;;;;;;;;;;;;;;5136656;27;19927;-40
2024/01/21 07:34:31;;;;;;;;;;;;;;;;;;5136576;27;19923;-40
2024/01/21 07:36:57;;;;;;;;;;;;;;;;;;5136515;27;19923;-41
2024/01/21 07:39:23;;;;;;;;;;;;;;;;;;5136537;27;20412;-43
2024/01/21 07:41:51;;;;;;;;;;;;;;;;;;5136480;27;20351;-42
2024/01/21 07:44:17;;;;;;;;;;;;;;;;;;5135906;27;19924;-41
2024/01/21 07:46:43;;;;;;;;;;;;;;;;;;5135962;27;19972;-42
2024/01/21 07:49:09;;;;;;;;;;;;;;;;;;5136215;27;19927;-41
2024/01/21 07:51:35;;;;;;;;;;;;;;;;;;5136097;27;19930;-42
2024/01/21 07:54:02;;;;;;;;;;;;;;;;;;5136318;27;19928;-40
2024/01/21 07:56:28;;;;;;;;;;;;;;;;;;5135886;27;19923;-42
2024/01/21 07:58:54;;;;;;;;;;;;;;;;;;5135644;27;19927;-40
2024/01/21 08:01:21;;;;;;;;;;;;;;;;;;5136121;27;20423;-42
2024/01/21 08:03:48;;;;;;;;;;;;;;;;;;5136087;27;19924;-42
2024/01/21 08:06:14;;;;;;;;;;;;;;;;;;5135930;27;19929;-40
2024/01/21 08:08:41;;;;;;;;;;;;;;;;;;5136065;27;19923;-41
2024/01/21 08:11:07;;;;;;;;;;;;;;;;;;5135765;27;19924;-41
2024/01/21 08:13:34;;;;;;;;;;;;;;;;;;5135552;27;19927;-40
2024/01/21 08:16:00;;;;;;;;;;;;;;;;;;5135690;27;19975;-41
2024/01/21 08:18:26;;;;;;;;;;;;;;;;;;5135690;27;20236;-42
2024/01/21 08:20:53;;;;;;;;;;;;;;;;;;5135549;27;19974;-41
2024/01/21 08:23:19;;;;;;;;;;;;;;;;;;5134356;27;19972;-42
2024/01/21 08:25:45;;;;;;;;;;;;;;;;;;5135398;27;19977;-40
2024/01/21 08:28:12;;;;;;;;;;;;;;;;;;5135539;27;20371;-41
2024/01/21 08:30:39;;;;;;;;;;;;;;;;;;5135368;27;19944;-40
2024/01/21 08:33:05;;;;;;;;;;;;;;;;;;5135457;27;19927;-40
2024/01/21 08:35:31;;;;;;;;;;;;;;;;;;5135272;27;20014;-42
2024/01/21 08:37:57;;;;;;;;;;;;;;;;;;5135322;27;20359;-40
2024/01/21 08:40:24;;;;;;;;;;;;;;;;;;5135319;27;19923;-44
2024/01/21 08:42:50;;;;;;;;;;;;;;;;;;5135052;27;19972;-42
2024/01/21 08:45:17;;;;;;;;;;;;;;;;;;5134909;27;19927;-40
2024/01/21 08:47:43;;;;;;;;;;;;;;;;;;5135059;27;19923;-41
2024/01/21 08:50:09;;;;;;;;;;;;;;;;;;5134934;27;19928;-40
2024/01/21 08:52:36;;;;;;;;;;;;;;;;;;5135069;27;19962;-40
2024/01/21 08:55:04;;;;;;;;;;;;;;;;;;5134905;27;19968;-41
2024/01/21 08:57:30;;;;;;;;;;;;;;;;;;5134889;27;19934;-42
2024/01/21 08:59:56;;;;;;;;;;;;;;;;;;5134866;27;19923;-43
2024/01/21 09:02:22;;;;;;;;;;;;;;;;;;5134934;27;19972;-42
2024/01/21 09:04:48;;;;;;;;;;;;;;;;;;5134852;27;19972;-39
2024/01/21 09:07:15;;;;;;;;;;;;;;;;;;5134850;27;20096;-39
2024/01/21 09:09:41;;;;;;;;;;;;;;;;;;5134748;27;20256;-40
2024/01/21 09:12:08;;;;;;;;;;;;;;;;;;5134546;27;20379;-39
2024/01/21 09:14:35;;;;;;;;;;;;;;;;;;5133725;27;20018;-39
2024/01/21 09:17:01;;;;;;;;;;;;;;;;;;5124882;27;19923;-39
2024/01/21 09:19:27;;;;;;;;;;;;;;;;;;5120709;27;19927;-39
2024/01/21 09:21:53;;;;;;;;;;;;;;;;;;5134348;27;19923;-40
2024/01/21 09:24:21;;;;;;;;;;;;;;;;;;5133656;27;20036;-40
2024/01/21 09:26:47;;;;;;;;;;;;;;;;;;5134455;27;19924;-40
2024/01/21 09:29:13;;;;;;;;;;;;;;;;;;5134442;27;19923;-39
2024/01/21 09:31:39;;;;;;;;;;;;;;;;;;5134542;27;19927;-40
2024/01/21 09:34:06;;;;;;;;;;;;;;;;;;5134357;27;20270;-39
2024/01/21 09:36:34;;;;;;;;;;;;;;;;;;5134327;27;19934;-39
2024/01/21 09:39:01;;;;;;;;;;;;;;;;;;5134116;27;20383;-41
2024/01/21 09:41:27;;;;;;;;;;;;;;;;;;5134060;28;20313;-39
2024/01/21 09:43:53;;;;;;;;;;;;;;;;;;5134169;28;19928;-40
2024/01/21 09:46:19;;;;;;;;;;;;;;;;;;5134191;28;19970;-39
2024/01/21 09:48:46;;;;;;;;;;;;;;;;;;5134075;28;19953;-39
2024/01/21 09:51:12;;;;;;;;;;;;;;;;;;5134075;28;20389;-40
2024/01/21 09:53:38;;;;;;;;;;;;;;;;;;5134145;28;20272;-39
2024/01/21 09:56:04;;;;;;;;;;;;;;;;;;5134081;28;20325;-39
2024/01/21 09:58:30;;;;;;;;;;;;;;;;;;5134265;28;20309;-41
2024/01/21 10:00:56;;;;;;;;;;;;;;;;;;5134125;28;19927;-39
2024/01/21 10:03:23;;;;;;;;;;;;;;;;;;5134246;28;19923;-39
2024/01/21 10:05:49;;;;;;;;;;;;;;;;;;5133965;28;20310;-39
2024/01/21 10:08:15;;;;;;;;;;;;;;;;;;5133915;28;19927;-40
2024/01/21 10:10:41;;;;;;;;;;;;;;;;;;5133962;28;19923;-39
2024/01/21 10:13:08;;;;;;;;;;;;;;;;;;5133827;28;19953;-39
2024/01/21 10:15:34;;;;;;;;;;;;;;;;;;5133952;28;19923;-40
2024/01/21 10:18:00;;;;;;;;;;;;;;;;;;5134012;28;19928;-39
2024/01/21 10:20:26;;;;;;;;;;;;;;;;;;5133789;28;19967;-39
2024/01/21 10:22:52;;;;;;;;;;;;;;;;;;5133920;28;20351;-40
2024/01/21 10:25:21;;;;;;;;;;;;;;;;;;5133927;28;19957;-41
2024/01/21 10:27:47;;;;;;;;;;;;;;;;;;5133770;28;20051;-39
2024/01/21 10:30:13;;;;;;;;;;;;;;;;;;5134037;28;19930;-39
2024/01/21 10:32:40;;;;;;;;;;;;;;;;;;5133858;28;19923;-39
2024/01/21 10:35:06;;;;;;;;;;;;;;;;;;5133702;28;19924;-40
2024/01/21 10:37:33;;;;;;;;;;;;;;;;;;5133547;28;19923;-39
2024/01/21 10:39:59;;;;;;;;;;;;;;;;;;5133622;28;20051;-39
2024/01/21 10:42:25;;;;;;;;;;;;;;;;;;5133670;28;20010;-39
2024/01/21 10:44:51;;;;;;;;;;;;;;;;;;5133602;27;19927;-41
2024/01/21 10:47:17;;;;;;;;;;;;;;;;;;5137347;27;19976;-39
2024/01/21 10:49:44;;;;;;;;;;;;;;;;;;5137089;27;19923;-39
2024/01/21 10:52:11;;;;;;;;;;;;;;;;;;5137234;27;19927;-39
2024/01/21 10:54:37;;;;;;;;;;;;;;;;;;5137428;27;19977;-40
2024/01/21 10:57:03;;;;;;;;;;;;;;;;;;5137290;27;19978;-40
2024/01/21 10:59:31;;;;;;;;;;;;;;;;;;5137452;27;19924;-41
2024/01/21 11:01:57;;;;;;;;;;;;;;;;;;5137308;27;20313;-40
2024/01/21 11:04:23;;;;;;;;;;;;;;;;;;5137164;27;19977;-40
2024/01/21 11:06:51;;;;;;;;;;;;;;;;;;5136971;27;20018;-40
2024/01/21 11:09:21;;;;;;;;;;;;;;;;;;5137020;27;19924;-40
2024/01/21 11:11:48;;;;;;;;;;;;;;;;;;5137118;27;20283;-40
2024/01/21 11:14:15;;;;;;;;;;;;;;;;;;5136586;27;19969;-39
2024/01/21 11:16:41;;;;;;;;;;;;;;;;;;5136895;27;19923;-39
2024/01/21 11:19:08;;;;;;;;;;;;;;;;;;5136903;27;19923;-40
2024/01/21 11:21:34;;;;;;;;;;;;;;;;;;5136926;27;19923;-39
2024/01/21 11:24:00;;;;;;;;;;;;;;;;;;5136889;27;19923;-40
2024/01/21 11:26:26;;;;;;;;;;;;;;;;;;5136663;27;19923;-39
2024/01/21 11:28:53;;;;;;;;;;;;;;;;;;5136884;27;20363;-39
2024/01/21 11:31:19;;;;;;;;;;;;;;;;;;5136856;27;19980;-41
2024/01/21 11:33:45;;;;;;;;;;;;;;;;;;5136484;27;19923;-39
2024/01/21 11:36:11;;;;;;;;;;;;;;;;;;5136424;27;19931;-40
2024/01/21 11:38:37;;;;;;;;;;;;;;;;;;5136346;27;19979;-39
2024/01/21 11:41:03;;;;;;;;;;;;;;;;;;5136276;27;19923;-39
2024/01/21 11:43:31;;;;;;;;;;;;;;;;;;5136443;27;19927;-40
2024/01/21 11:45:57;;;;;;;;;;;;;;;;;;5136233;27;19923;-41
2024/01/21 11:48:23;;;;;;;;;;;;;;;;;;5136354;27;19923;-40
2024/01/21 11:50:49;;;;;;;;;;;;;;;;;;5136170;27;19973;-40
2024/01/21 11:53:16;;;;;;;;;;;;;;;;;;5136329;27;19927;-39
2024/01/21 11:55:42;;;;;;;;;;;;;;;;;;5136374;27;19923;-40
2024/01/21 11:58:08;;;;;;;;;;;;;;;;;;5134954;27;19924;-40
2024/01/21 12:00:34;;;;;;;;;;;;;;;;;;5136269;27;19924;-39
2024/01/21 12:03:00;;;;;;;;;;;;;;;;;;5135773;27;19923;-39
2024/01/21 12:05:26;;;;;;;;;;;;;;;;;;5135815;27;19927;-40
2024/01/21 12:07:53;;;;;;;;;;;;;;;;;;5135802;27;20347;-39
2024/01/21 12:10:20;;;;;;;;;;;;;;;;;;5135881;27;19952;-40
2024/01/21 12:12:46;;;;;;;;;;;;;;;;;;5135689;27;20264;-39
2024/01/21 12:15:12;;;;;;;;;;;;;;;;;;5135588;27;19927;-40
2024/01/21 12:17:38;;;;;;;;;;;;;;;;;;5135897;27;19972;-40
2024/01/21 12:20:04;;;;;;;;;;;;;;;;;;5135701;27;19957;-40
2024/01/21 12:22:30;;;;;;;;;;;;;;;;;;5135605;27;19923;-39
2024/01/21 12:24:57;;;;;;;;;;;;;;;;;;5135781;27;19927;-39
2024/01/21 12:27:23;;;;;;;;;;;;;;;;;;5135504;27;20270;-39
2024/01/21 12:29:49;;;;;;;;;;;;;;;;;;5135547;27;19934;-40
2024/01/21 12:32:16;;;;;;;;;;;;;;;;;;5135531;27;19924;-39
2024/01/21 12:34:42;;;;;;;;;;;;;;;;;;5135251;27;20428;-39
2024/01/21 12:37:12;;;;;;;;;;;;;;;;;;5135187;27;20014;-39
2024/01/21 12:39:38;;;;;;;;;;;;;;;;;;5135313;27;19949;-40
2024/01/21 12:42:04;;;;;;;;;;;;;;;;;;5135210;27;19924;-40
2024/01/21 12:44:31;;;;;;;;;;;;;;;;;;5135220;27;19988;-39
2024/01/21 12:46:57;;;;;;;;;;;;;;;;;;5135052;27;19923;-40
2024/01/21 12:49:23;;;;;;;;;;;;;;;;;;5135199;27;19972;-40
2024/01/21 12:51:49;;;;;;;;;;;;;;;;;;5135053;27;19978;-39
2024/01/21 12:54:16;;;;;;;;;;;;;;;;;;5135000;27;19946;-39
2024/01/21 12:56:42;;;;;;;;;;;;;;;;;;5135024;27;19942;-39
2024/01/21 12:59:08;;;;;;;;;;;;;;;;;;5135022;27;19924;-39
2024/01/21 13:01:35;;;;;;;;;;;;;;;;;;5134817;27;19924;-39
2024/01/21 13:04:01;;;;;;;;;;;;;;;;;;5134740;27;19930;-40
2024/01/21 13:06:27;;;;;;;;;;;;;;;;;;5134505;27;19930;-40
2024/01/21 13:08:54;;;;;;;;;;;;;;;;;;5134335;27;19928;-40
2024/01/21 13:11:21;;;;;;;;;;;;;;;;;;5134835;27;19972;-41
2024/01/21 13:13:47;;;;;;;;;;;;;;;;;;5134575;27;19976;-40
2024/01/21 13:16:13;;;;;;;;;;;;;;;;;;5134678;27;19923;-40
2024/01/21 13:18:41;;;;;;;;;;;;;;;;;;5134644;27;19924;-39
2024/01/21 13:21:09;;;;;;;;;;;;;;;;;;5134629;27;20412;-39
2024/01/21 13:23:35;;;;;;;;;;;;;;;;;;5134659;27;19927;-39
2024/01/21 13:26:01;;;;;;;;;;;;;;;;;;5134564;27;19976;-39
2024/01/21 13:28:28;;;;;;;;;;;;;;;;;;5134512;27;19962;-38
2024/01/21 13:30:55;;;;;;;;;;;;;;;;;;5134003;27;20359;-40
2024/01/21 13:33:22;;;;;;;;;;;;;;;;;;5134417;27;19923;-39
2024/01/21 13:35:49;;;;;;;;;;;;;;;;;;5134255;27;19931;-39
2024/01/21 13:38:15;;;;;;;;;;;;;;;;;;5134249;27;20413;-40
2024/01/21 13:40:41;;;;;;;;;;;;;;;;;;5134315;27;19923;-41
2024/01/21 13:43:08;;;;;;;;;;;;;;;;;;5134193;27;20273;-40
2024/01/21 13:45:34;;;;;;;;;;;;;;;;;;5134191;28;19923;-39
2024/01/21 13:48:01;;;;;;;;;;;;;;;;;;5134270;28;19930;-39
2024/01/21 13:50:27;;;;;;;;;;;;;;;;;;5134204;28;19927;-40
2024/01/21 13:52:55;;;;;;;;;;;;;;;;;;5134314;28;20355;-39
2024/01/21 13:55:21;;;;;;;;;;;;;;;;;;5134398;28;19923;-39
2024/01/21 13:57:48;;;;;;;;;;;;;;;;;;5134163;28;19930;-39
2024/01/21 14:00:14;;;;;;;;;;;;;;;;;;5134040;28;19935;-39
2024/01/21 14:02:40;;;;;;;;;;;;;;;;;;5133985;28;19923;-39
2024/01/21 14:05:06;;;;;;;;;;;;;;;;;;5134051;28;19924;-39
2024/01/21 14:07:32;;;;;;;;;;;;;;;;;;5134009;28;19927;-39
2024/01/21 14:10:00;;;;;;;;;;;;;;;;;;5134038;28;19927;-39
2024/01/21 14:12:26;;;;;;;;;;;;;;;;;;5134016;28;19967;-40
2024/01/21 14:14:54;;;;;;;;;;;;;;;;;;5133902;28;19924;-41
2024/01/21 14:17:24;;;;;;;;;;;;;;;;;;5133972;28;19928;-39
2024/01/21 14:19:51;;;;;;;;;;;;;;;;;;5134195;27;19931;-40
2024/01/21 14:22:17;;;;;;;;;;;;;;;;;;5138067;27;19923;-39
2024/01/21 14:24:44;;;;;;;;;;;;;;;;;;5138005;27;20393;-39
2024/01/21 14:27:10;;;;;;;;;;;;;;;;;;5137720;27;19982;-40
2024/01/21 14:29:36;;;;;;;;;;;;;;;;;;5137528;27;20274;-39
2024/01/21 14:32:03;;;;;;;;;;;;;;;;;;5137463;27;20333;-39
2024/01/21 14:34:29;;;;;;;;;;;;;;;;;;5137918;27;19931;-41
2024/01/21 14:36:55;;;;;;;;;;;;;;;;;;5137360;27;20278;-40
2024/01/21 14:39:21;;;;;;;;;;;;;;;;;;5137641;27;19930;-40
2024/01/21 14:41:47;;;;;;;;;;;;;;;;;;5137629;27;19931;-40
2024/01/21 14:44:14;;;;;;;;;;;;;;;;;;5137518;27;19953;-40
2024/01/21 14:46:40;;;;;;;;;;;;;;;;;;5137579;27;19924;-39
2024/01/21 14:49:08;;;;;;;;;;;;;;;;;;5137744;27;19968;-39
2024/01/21 14:51:34;;;;;;;;;;;;;;;;;;5137435;27;19985;-39
2024/01/21 14:54:00;;;;;;;;;;;;;;;;;;5137402;27;20012;-40
2024/01/21 14:56:26;;;;;;;;;;;;;;;;;;5137217;27;19923;-39
2024/01/21 14:58:52;;;;;;;;;;;;;;;;;;5137179;27;19972;-39
2024/01/21 15:01:19;;;;;;;;;;;;;;;;;;5137120;27;19931;-41
2024/01/21 15:03:45;;;;;;;;;;;;;;;;;;5137156;27;19971;-40
2024/01/21 15:06:12;;;;;;;;;;;;;;;;;;5137166;27;20022;-41
2024/01/21 15:08:39;;;;;;;;;;;;;;;;;;5136995;27;19924;-39
2024/01/21 15:11:06;;;;;;;;;;;;;;;;;;5137054;27;20348;-42
2024/01/21 15:13:32;;;;;;;;;;;;;;;;;;5137060;27;19923;-39
2024/01/21 15:15:58;;;;;;;;;;;;;;;;;;5137005;27;19968;-39
2024/01/21 15:18:28;;;;;;;;;;;;;;;;;;5137250;27;19962;-41
2024/01/21 15:20:59;;;;;;;;;;;;;;;;;;5137053;27;19931;-38
2024/01/21 15:23:25;;;;;;;;;;;;;;;;;;5136394;27;19923;-39
2024/01/21 15:25:52;;;;;;;;;;;;;;;;;;5136665;27;19977;-39
2024/01/21 15:28:18;;;;;;;;;;;;;;;;;;5136555;27;19927;-39
2024/01/21 15:30:44;;;;;;;;;;;;;;;;;;5136729;27;19953;-39
2024/01/21 15:33:10;;;;;;;;;;;;;;;;;;5136238;27;20286;-40
2024/01/21 15:35:36;;;;;;;;;;;;;;;;;;5136587;27;19924;-39
2024/01/21 15:38:02;;;;;;;;;;;;;;;;;;5136540;27;19953;-40
2024/01/21 15:40:29;;;;;;;;;;;;;;;;;;5136441;27;19956;-40
2024/01/21 15:42:55;;;;;;;;;;;;;;;;;;5136528;27;20328;-39
2024/01/21 15:45:21;;;;;;;;;;;;;;;;;;5136336;27;20287;-40
2024/01/21 15:47:47;;;;;;;;;;;;;;;;;;5136469;27;19923;-40
2024/01/21 15:50:14;;;;;;;;;;;;;;;;;;5136311;27;20009;-39
2024/01/21 15:52:41;;;;;;;;;;;;;;;;;;5136104;27;19931;-39
2024/01/21 15:55:09;;;;;;;;;;;;;;;;;;5136180;27;19923;-39
2024/01/21 15:57:35;;;;;;;;;;;;;;;;;;5135654;27;20303;-39
2024/01/21 16:00:01;;;;;;;;;;;;;;;;;;5135895;27;20381;-39
2024/01/21 16:02:28;;;;;;;;;;;;;;;;;;5135987;27;19927;-39
2024/01/21 16:04:54;;;;;;;;;;;;;;;;;;5135793;27;19950;-40
2024/01/21 16:07:22;;;;;;;;;;;;;;;;;;5135953;27;19924;-40
2024/01/21 16:09:49;;;;;;;;;;;;;;;;;;5135933;27;19977;-41
2024/01/21 16:12:15;;;;;;;;;;;;;;;;;;5135694;27;19930;-39
2024/01/21 16:14:43;;;;;;;;;;;;;;;;;;5135988;27;19923;-39
2024/01/21 16:17:09;;;;;;;;;;;;;;;;;;5135915;27;19934;-42
2024/01/21 16:19:35;;;;;;;;;;;;;;;;;;5135864;27;19930;-39
2024/01/21 16:22:02;;;;;;;;;;;;;;;;;;5135600;27;19932;-39
2024/01/21 16:24:28;;;;;;;;;;;;;;;;;;5135526;27;19931;-39
2024/01/21 16:26:54;;;;;;;;;;;;;;;;;;5135402;27;19928;-39
2024/01/21 16:29:21;;;;;;;;;;;;;;;;;;5135529;27;19972;-39
2024/01/21 16:31:47;;;;;;;;;;;;;;;;;;5135449;27;19968;-40
2024/01/21 16:34:13;;;;;;;;;;;;;;;;;;5135458;27;19996;-39
2024/01/21 16:36:40;;;;;;;;;;;;;;;;;;5135344;27;19930;-39
2024/01/21 16:39:07;;;;;;;;;;;;;;;;;;5135134;27;20252;-39